Kyancutta, Australia
Current Conditions -  °F | °C
As of 11:00 PM on Thursday 30 Oct 2014 (Local Time) from YWHA Reporting Station
Clear Clear  
Wind Chill: 63°   Ceiling: Unl
Heat Index: 63°   Visibility: 6mi
Dew Point: 48°   Wind: 5mph
Humidity: 59%   Direction: 290°WNW
Pressure: 29.83"   Gusts: NA
Location:  33.13°S, 135.55°E
Report Text: YWHA 301300Z AUTO 29004KT 9999 // NCD 17/09 Q1010
Loading
Personal Weather Stations






























Interactive Weather Map
Tropical Storm Tracking
New forecast layout! Learn more

10-Day Weather Forecast

Advertisements
Track Severe Weather on mobile